createdAt,value
2023-02-25T00:01:14.755Z,9.76
2023-02-25T00:06:15.523Z,9.83
2023-02-25T00:11:26.479Z,10.05
2023-02-25T00:16:26.436Z,9.09
2023-02-25T00:21:23.518Z,8.93
2023-02-25T00:26:21.487Z,8.87
2023-02-25T00:31:19.485Z,8.90
2023-02-25T00:36:19.638Z,8.33
2023-02-25T00:41:17.348Z,7.79
2023-02-25T00:46:14.659Z,7.86
2023-02-25T00:51:12.488Z,7.98
2023-02-25T00:56:10.486Z,7.46
2023-02-25T01:01:15.512Z,7.20
2023-02-25T01:06:12.930Z,7.24
2023-02-25T01:11:13.771Z,7.37
2023-02-25T01:16:11.598Z,7.26
2023-02-25T01:21:17.141Z,7.79
2023-02-25T01:26:14.211Z,8.01
2023-02-25T01:31:16.487Z,8.10
2023-02-25T01:36:15.236Z,7.73
2023-02-25T01:41:11.891Z,7.76
2023-02-25T01:46:08.841Z,7.30
2023-02-25T01:51:07.811Z,7.18
2023-02-25T01:56:05.410Z,6.44
2023-02-25T02:01:02.211Z,6.13
2023-02-25T02:06:07.047Z,5.78
2023-02-25T02:11:06.408Z,5.25
2023-02-25T02:16:10.887Z,5.13
2023-02-25T02:21:17.656Z,5.17
2023-02-25T02:26:37.201Z,5.24
2023-02-25T02:31:49.315Z,5.24
2023-02-25T02:36:50.008Z,5.32
2023-02-25T02:41:50.529Z,5.61
2023-02-25T02:46:51.228Z,5.68
2023-02-25T02:51:51.776Z,5.62
2023-02-25T02:56:51.451Z,5.93
2023-02-25T03:01:51.437Z,5.95
2023-02-25T03:06:50.720Z,6.35
2023-02-25T03:11:47.818Z,6.20
2023-02-25T03:16:47.574Z,5.43
2023-02-25T03:21:48.748Z,5.59
2023-02-25T03:26:45.524Z,6.14
2023-02-25T03:31:47.822Z,6.77
2023-02-25T03:36:46.386Z,6.77
2023-02-25T03:41:46.511Z,7.18
2023-02-25T03:46:44.775Z,7.41
2023-02-25T03:51:42.484Z,6.92
2023-02-25T03:56:46.894Z,6.11
2023-02-25T04:01:46.088Z,5.96
2023-02-25T04:06:47.056Z,6.35
2023-02-25T04:11:45.141Z,6.91
2023-02-25T04:16:42.304Z,7.27
2023-02-25T04:21:39.625Z,6.34
2023-02-25T04:26:36.856Z,6.29
2023-02-25T04:31:34.736Z,6.15
2023-02-25T04:36:37.510Z,6.16
2023-02-25T04:41:35.740Z,5.45
2023-02-25T04:46:34.430Z,5.44
2023-02-25T04:51:31.946Z,5.85
2023-02-25T04:56:28.762Z,6.45
2023-02-25T05:01:25.567Z,6.18
2023-02-25T05:06:22.823Z,6.64
2023-02-25T05:11:21.225Z,6.93
2023-02-25T05:16:19.330Z,7.19
2023-02-25T05:21:16.792Z,7.32
2023-02-25T05:26:14.393Z,7.52
2023-02-25T05:31:12.233Z,7.39
2023-02-25T05:36:10.048Z,7.60
2023-02-25T05:41:11.240Z,7.63
2023-02-25T05:46:12.304Z,7.57
2023-02-25T05:51:12.958Z,7.56
2023-02-25T05:56:12.054Z,7.78
2023-02-25T06:01:10.859Z,7.92
2023-02-25T06:06:10.239Z,7.94
2023-02-25T06:11:17.344Z,7.44
2023-02-25T06:16:14.489Z,7.60
2023-02-25T06:21:13.712Z,7.84
2023-02-25T06:26:16.666Z,7.93
2023-02-25T06:31:14.850Z,7.91
2023-02-25T06:36:14.524Z,7.97
2023-02-25T06:41:16.111Z,7.77
2023-02-25T06:46:15.648Z,7.33
2023-02-25T06:51:16.825Z,7.43
2023-02-25T06:56:14.467Z,7.60
2023-02-25T07:01:13.696Z,7.85
2023-02-25T07:06:10.772Z,7.99
2023-02-25T07:11:14.819Z,7.79
2023-02-25T07:16:11.743Z,8.19
2023-02-25T07:21:08.634Z,8.23
2023-02-25T07:26:06.362Z,7.88
2023-02-25T07:31:05.595Z,7.99
2023-02-25T07:36:02.849Z,8.08
2023-02-25T07:41:03.536Z,8.32
2023-02-25T07:46:00.454Z,8.57
2023-02-25T07:51:04.342Z,8.71
2023-02-25T07:56:01.239Z,8.92
2023-02-25T08:06:55.217Z,9.23
2023-02-25T08:11:52.298Z,9.31
2023-02-25T08:16:49.153Z,9.48
2023-02-25T08:22:11.024Z,9.64
2023-02-25T08:27:10.615Z,9.85
2023-02-25T08:32:10.045Z,9.96
2023-02-25T08:37:09.563Z,10.02
2023-02-25T08:42:06.577Z,10.32
2023-02-25T08:47:07.807Z,10.42
2023-02-25T08:52:13.720Z,10.25
2023-02-25T08:57:10.742Z,10.23
2023-02-25T09:02:14.626Z,10.62
2023-02-25T09:07:13.353Z,11.05
2023-02-25T09:12:10.296Z,11.17
2023-02-25T09:17:07.076Z,11.22
2023-02-25T09:22:04.328Z,11.38
2023-02-25T09:27:08.213Z,11.73
2023-02-25T09:32:08.775Z,11.65
2023-02-25T09:37:08.383Z,11.90
2023-02-25T09:42:08.797Z,11.84
2023-02-25T09:47:18.045Z,11.98
2023-02-25T09:52:18.080Z,12.05
2023-02-25T09:57:18.923Z,12.14
2023-02-25T10:02:21.365Z,12.22
2023-02-25T10:07:21.043Z,12.13
2023-02-25T10:12:24.873Z,12.24
2023-02-25T10:17:26.454Z,12.09
2023-02-25T10:22:31.226Z,12.05
2023-02-25T10:27:29.483Z,12.20
2023-02-25T10:32:28.874Z,12.10
2023-02-25T10:37:30.812Z,12.23
2023-02-25T10:42:27.884Z,12.46
2023-02-25T10:47:29.241Z,12.42
2023-02-25T10:52:26.664Z,12.45
2023-02-25T10:57:26.601Z,12.52
2023-02-25T11:02:25.394Z,12.37
2023-02-25T11:07:31.252Z,12.38
2023-02-25T11:12:32.058Z,12.53
2023-02-25T11:17:28.975Z,12.55
2023-02-25T11:22:31.456Z,12.57
2023-02-25T11:39:51.541Z,12.65
2023-02-25T11:44:48.405Z,12.74
2023-02-25T11:49:52.483Z,12.70
2023-02-25T11:54:57.343Z,12.68
2023-02-25T12:00:04.032Z,12.71
2023-02-25T12:05:27.412Z,12.58
2023-02-25T12:10:48.958Z,12.72
2023-02-25T12:16:00.108Z,12.75
2023-02-25T12:21:20.885Z,12.80
2023-02-25T12:26:25.599Z,12.76
2023-02-25T12:31:45.325Z,12.71
2023-02-25T12:36:56.401Z,12.71
2023-02-25T12:41:58.044Z,12.72
2023-02-25T12:47:01.989Z,12.72
2023-02-25T12:52:07.285Z,12.72
2023-02-25T12:57:21.206Z,12.72
2023-02-25T13:02:33.372Z,12.74
2023-02-25T13:07:37.807Z,12.73
2023-02-25T13:12:43.342Z,12.75
2023-02-25T13:17:53.030Z,12.71
2023-02-25T13:22:57.120Z,12.69
2023-02-25T13:28:14.988Z,12.68
2023-02-25T13:33:21.805Z,12.68
2023-02-25T13:38:33.080Z,12.58
2023-02-25T13:43:44.543Z,12.58
2023-02-25T13:48:48.236Z,12.54
2023-02-25T13:53:52.758Z,12.70
2023-02-25T13:58:55.678Z,12.64
2023-02-25T14:04:08.346Z,12.80
2023-02-25T14:09:19.331Z,12.69
2023-02-25T14:14:30.820Z,12.69
2023-02-25T14:19:45.012Z,12.58
2023-02-25T14:24:45.799Z,12.63
2023-02-25T14:29:49.139Z,12.62
2023-02-25T14:34:55.849Z,12.56
2023-02-25T14:40:06.076Z,12.74
2023-02-25T14:45:13.327Z,12.78
2023-02-25T14:50:13.303Z,12.71
2023-02-25T14:55:23.426Z,12.75
2023-02-25T15:00:42.188Z,12.73
2023-02-25T15:05:50.285Z,12.79
2023-02-25T15:11:07.229Z,12.88
2023-02-25T15:16:50.638Z,12.98
2023-02-25T15:21:51.307Z,13.15
2023-02-25T15:26:49.277Z,12.90
2023-02-25T15:32:08.339Z,12.89
2023-02-25T15:37:22.894Z,12.92
2023-02-25T15:42:34.506Z,12.96
2023-02-25T15:47:32.356Z,12.97
2023-02-25T15:52:47.874Z,12.95
2023-02-25T15:57:44.858Z,12.93
2023-02-25T16:02:43.297Z,12.90
2023-02-25T16:07:44.676Z,12.89
2023-02-25T16:12:42.246Z,12.98
2023-02-25T16:17:39.312Z,12.88
2023-02-25T16:22:36.843Z,12.79
2023-02-25T16:27:43.191Z,12.71
2023-02-25T16:32:45.193Z,12.79
2023-02-25T16:37:45.981Z,12.97
2023-02-25T16:42:43.217Z,12.99
2023-02-25T16:47:42.415Z,12.86
2023-02-25T16:52:40.828Z,13.02
2023-02-25T16:57:38.520Z,13.00
2023-02-25T17:02:42.245Z,13.14
2023-02-25T17:07:53.014Z,13.27
2023-02-25T17:12:50.610Z,13.20
2023-02-25T17:17:51.872Z,13.26
2023-02-25T17:22:49.755Z,13.59
2023-02-25T17:27:47.468Z,13.48
2023-02-25T17:32:58.968Z,13.13
2023-02-25T17:37:56.290Z,12.92
2023-02-25T17:43:14.608Z,13.09
2023-02-25T17:48:15.412Z,12.91
2023-02-25T17:53:26.260Z,12.98
2023-02-25T17:58:23.549Z,12.99
2023-02-25T18:03:36.400Z,12.95
2023-02-25T18:08:50.066Z,12.96
2023-02-25T18:13:47.015Z,12.93
2023-02-25T18:18:49.897Z,12.79
2023-02-25T18:23:48.126Z,12.67
2023-02-25T18:28:46.492Z,12.57
2023-02-25T18:33:43.556Z,12.80
2023-02-25T18:38:43.225Z,12.97
2023-02-25T18:43:42.931Z,13.32
2023-02-25T18:48:39.877Z,13.29
2023-02-25T18:53:36.908Z,13.53
2023-02-25T18:58:36.513Z,13.60
2023-02-25T19:03:34.204Z,13.66
2023-02-25T19:08:31.041Z,13.76
2023-02-25T19:13:30.175Z,13.84
2023-02-25T19:18:28.866Z,14.12
2023-02-25T19:23:25.872Z,14.18
2023-02-25T19:28:23.868Z,14.05
2023-02-25T19:33:23.584Z,14.22
2023-02-25T19:38:20.910Z,14.09
2023-02-25T19:43:18.037Z,14.05
2023-02-25T19:48:14.663Z,13.79
2023-02-25T19:53:11.646Z,14.01
2023-02-25T19:58:10.952Z,14.23
2023-02-25T20:03:07.870Z,14.52
2023-02-25T20:08:04.922Z,14.22
2023-02-25T20:13:02.411Z,14.47
2023-02-25T20:17:59.772Z,14.30
2023-02-25T20:22:56.571Z,14.18
2023-02-25T20:27:56.420Z,14.42
2023-02-25T20:32:53.364Z,14.44
2023-02-25T20:38:07.431Z,14.31
2023-02-25T20:43:04.538Z,14.05
2023-02-25T20:48:01.433Z,14.04
2023-02-25T20:52:58.636Z,13.98
2023-02-25T20:57:56.042Z,13.97
2023-02-25T21:02:52.869Z,13.86
2023-02-25T21:07:51.053Z,13.99
2023-02-25T21:12:48.832Z,13.95
2023-02-25T21:17:46.148Z,13.95
2023-02-25T21:22:42.941Z,13.94
2023-02-25T21:27:39.548Z,13.80
2023-02-25T21:32:39.426Z,13.80
2023-02-25T21:37:36.940Z,13.58
2023-02-25T21:42:33.877Z,13.67
2023-02-25T21:47:30.884Z,13.54
2023-02-25T21:52:27.858Z,13.27
2023-02-25T21:57:25.574Z,13.25
2023-02-25T22:02:22.377Z,13.23
2023-02-25T22:07:18.975Z,13.36
2023-02-25T22:12:16.241Z,13.23
2023-02-25T22:17:14.849Z,13.23
2023-02-25T22:22:13.567Z,13.29
2023-02-25T22:27:12.072Z,13.39
2023-02-25T22:32:08.918Z,13.11
2023-02-25T22:37:06.291Z,13.01
2023-02-25T22:42:05.409Z,13.09
2023-02-25T22:47:02.357Z,13.14
2023-02-25T22:51:58.949Z,13.29
2023-02-25T22:56:56.172Z,13.32
2023-02-25T23:01:53.162Z,13.42
2023-02-25T23:06:51.361Z,13.30
2023-02-25T23:11:48.245Z,13.34
2023-02-25T23:16:48.096Z,13.35
2023-02-25T23:21:44.814Z,13.38
2023-02-25T23:26:45.526Z,13.33
2023-02-25T23:31:48.624Z,13.35
2023-02-25T23:36:46.722Z,13.40
2023-02-25T23:41:43.639Z,13.38
2023-02-25T23:46:42.494Z,13.39
2023-02-25T23:51:41.208Z,13.30
2023-02-25T23:56:41.195Z,13.31
